Предлагаем Вашему вниманию английскую версию страницы: AUTOTAF.ME UUWK - aviation weather forecast Kudinovo

AUTOTAF UUWK - авиапрогноз Кудиново

Сегодня рассвет 04:58 UTC, восход солнца 05:42 UTC,
местный полдень 09:25 UTC, заход солнца 13:08 UTC,
наступление темноты 13:53 UTC.

Краткий прогноз UUWK на 9 часов

AUTOTAF.ME UUWK 050800Z 0509/0518 16004MPS 9999 BKN023    
  BECMG 0510/0512 NSC

Детальный прогноз UUWK на 24 часа

AUTOTAF.ME UUWK 050800Z 0509/0609 16004MPS 9999 BKN023 TXM04/0509Z TNM08/0600Z  
  BECMG 0510/0512 SKC

Подробный табличный прогноз

Время (UTC) miniAUTOTAF на 3 ч WX FZLVL
M AGL
ICE TURB Т
(°С)
Тd
(°С)
f(%) QNH
(гПа)
WIND/T
06 16003MPS 9999 BKN009 SFC MOD FL10/FL20 -6 -8 86 1035 ...
09 16004MPS 9999 BKN023 SFC -4 -8 73 1036 ...
12 16003MPS 9999 SKC SFC MOD SFC/FL20 -4 -8 73 1036 ...
15 16003MPS 9999 SKC SFC -6 -10 73 1036 ...
18 16003MPS 9999 SKC SFC -6 -10 72 1037 ...
21 17003MPS 9999 SKC SFC -7 -11 70 1038 ...
06.12.2020
00 18003MPS 9999 SKC SFC -8 -12 72 1039 ...
03 17003MPS 9999 SKC SFC -8 -12 73 1039 ...
06 17003MPS 9999 FEW360 SFC -8 -12 72 1041 ...
09 18003MPS 9999 SKC SFC -5 -10 65 1041 ...
12 VRB02MPS 9999 SKC SFC -5 -9 74 1041 ...
15 VRB02MPS 9999 SKC SFC -7 -11 75 1041 ...
18 VRB02MPS 9999 SKC SFC -7 -10 79 1042 ...
21 VRB02MPS 9999 SKC SFC -7 -10 82 1042 ...
07.12.2020
00 VRB02MPS 9999 SKC SFC -8 -10 83 1042 ...
03 VRB02MPS 9999 SKC SFC -8 -10 83 1041 ...


Широта 55.02335°, долгота 36.24422°, высота 192 м абс.
Средняя высота рельефа местности 191 м абс.
Прогнозы обновляются четыре раза в сутки: в 02, 08, 14, 20 ч всемирного времени.


Выбрать прогноз по другой модели Кудиново
Онлайн-сводка гроз по Кудиново (для РФ и ближнего зарубежья)
Карта фактических гроз в окрестностях Кудиново
Динамические прогностические карты (ventusky.com)
Прогностическая карта высоты нижней границы облаков по Кудиново (windy.com)
Выбрать другой город

Прогноз предназначен для личного научно-познавательного использования частными лицами
и не предназначен для принятия важных решений и выполнения реальных полётов воздушных судов

При копировании или ином использовании любых материалов данного сайта ссылка на © meteocenter.asia обязательна.

0.59/0.7